Terminal Aerodrome Forecast
Issued by NWS Wilmington, OH

Current Version | Previous Version | Text Only | Print | Product List | Glossary Off
Versions: 1 2 3 4 5 6 7 8 9 10 11 12 13 14 15 16 17 18 19 20 21 22 23 24

657
FTUS41 KILN 241735
TAFCMH
TAF
KCMH 241735Z 2418/2518 20011KT P6SM SCT045 BKN200
     FM250000 19008KT P6SM VCTS BKN045CB
     FM250300 18006KT P6SM SCT050 BKN250
     FM251500 22008KT P6SM FEW040=

USA.gov is the U.S. government's official web portal to all federal, state and local government web resources and services.